This is the latest recevied weather packets stored in our database for station/object CE3UOB-10. If no packets are shown the sender has not sent any weather packets the latest 10 day(s).
| Time | Temp. | Humidity | Pressure | Rain* | Wind** | Luminosity | Snow |
|---|---|---|---|---|---|---|---|
| 1777572260 | 18.89° C | 73% | 990.6 hPa | - | - | - | - |
| 1777572254 | 18.89° C | 73% | 990.6 hPa | - | - | - | - |
| 1777570460 | 18.33° C | 67% | 990.8 hPa | - | - | - | - |
| 1777570454 | 18.33° C | 67% | 990.8 hPa | - | - | - | - |
| 1777568660 | 18.33° C | 68% | 991.1 hPa | - | - | - | - |
| 1777568653 | 18.33° C | 68% | 991.1 hPa | - | - | - | - |
| 1777566860 | 17.78° C | 69% | 991.6 hPa | - | - | - | - |
| 1777566853 | 17.78° C | 69% | 991.6 hPa | - | - | - | - |
| 1777565060 | 17.22° C | 71% | 991.8 hPa | - | - | - | - |
| 1777565053 | 17.22° C | 71% | 991.8 hPa | - | - | - | - |
| 1777563262 | 16.11° C | 70% | 991.9 hPa | - | - | - | - |
| 1777563252 | 16.11° C | 70% | 991.9 hPa | - | - | - | - |
| 1777561457 | 16.11° C | 73% | 991.8 hPa | - | - | - | - |
| 1777559670 | 15° C | 71% | 991.6 hPa | - | - | - | - |
| 1777559657 | 15° C | 71% | 991.6 hPa | - | - | - | - |
| 1777558507 | 13.89° C | 69% | 991.4 hPa | - | - | - | - |
| 1777556097 | 13.33° C | 70% | 991 hPa | - | - | - | - |
| 1777554256 | 10° C | 89% | 990.7 hPa | - | - | - | - |
| 1777552584 | 8.89° C | 91% | 990.5 hPa | - | - | - | - |
| 1777552470 | 8.89° C | 91% | 990.5 hPa | - | - | - | - |
| 1777552456 | 8.89° C | 91% | 990.5 hPa | - | - | - | - |
| 1777550656 | 7.78° C | 93% | 990.5 hPa | - | - | - | - |
| 1777548863 | 8.33° C | 88% | 990.3 hPa | - | - | - | - |
| 1777548856 | 8.33° C | 88% | 990.3 hPa | - | - | - | - |
| 1777547063 | 8.33° C | 90% | 990.2 hPa | - | - | - | - |
* Rain since midnight (hover to see other rain measurements)
** Current wind speed in m/s (hover to see current wind gust speed)